Map Display - EGKK to LIMJ
(last flight recorded 25-10-2021, 20:14 - Dale Moore)

Aircraft Weights    Units : Maximums
Passengers :    
Cargo : kg 0 kg
Suggested Fuel Load : kg ? kg
 
     
 
Dry Operating : 0 kg    
Total Payload : 0 kg 0 kg
 
Take Off : 5,840 kg 0 kg
 
Expected Landing : 2,402 kg ? kg

Dale Moore,  A20N ,  G-TTND,  .

Route Distance Previous
Flights
Average
Duration
Average
Fuel Flow
Average
Fuel Use
EGKK - Gatwick, London
LIMJ - Sestri, Genoa, Italy
544 nm 1 01:42 2,002 kg/h 3,438 kg

Current weather :-
2021/10/25 18:09
TAF EGKK 251700Z 2518/2624 23008KT 9999 FEW015 PROB40 2521/2608 7000
TEMPO 2612/2624 BKN012 PROB30
TEMPO 2612/2618 8000 -RADZ
2021/10/25 18:22
TAF LIMJ 251700Z 2518/2618 03012KT 9999 FEW030

Back to Virtual Airline